createdAt,value
2017-08-10T05:57:18.696Z,5.60
2017-08-10T05:59:45.961Z,6.40
2017-08-10T06:02:13.258Z,7.00
2017-08-10T06:04:40.532Z,10.60
2017-08-10T06:07:07.848Z,10.77
2017-08-10T06:09:35.147Z,7.63
2017-08-10T06:12:02.516Z,9.67
2017-08-10T06:14:29.792Z,7.63
2017-08-10T06:16:57.064Z,8.00
2017-08-10T06:19:24.341Z,7.73
2017-08-10T06:21:51.656Z,7.77
2017-08-10T06:24:18.954Z,7.30
2017-08-10T06:26:46.215Z,8.53
2017-08-10T06:29:13.524Z,8.40
2017-08-10T06:31:40.793Z,7.13
2017-08-10T06:34:08.087Z,9.10
2017-08-10T06:36:35.399Z,7.27
2017-08-10T06:39:02.739Z,14.83
2017-08-10T06:41:30.012Z,11.53
2017-08-10T06:43:57.310Z,9.40
2017-08-10T06:46:24.555Z,9.70
2017-08-10T06:48:51.854Z,12.90
2017-08-10T06:51:19.110Z,9.97
2017-08-10T06:53:46.400Z,11.83
2017-08-10T06:56:13.660Z,7.60
2017-08-10T06:58:40.960Z,8.47
2017-08-10T07:01:08.218Z,9.50
2017-08-10T07:03:35.478Z,9.77
2017-08-10T07:06:02.782Z,9.93
2017-08-10T07:08:30.042Z,8.60
2017-08-10T07:10:57.300Z,6.77
2017-08-10T07:13:24.592Z,7.77
2017-08-10T07:15:51.849Z,7.80
2017-08-10T07:18:19.144Z,10.60
2017-08-10T07:20:46.459Z,12.03
2017-08-10T07:23:13.730Z,11.43
2017-08-10T07:25:40.993Z,9.23
2017-08-10T07:28:08.290Z,9.13
2017-08-10T07:30:35.556Z,10.30
2017-08-10T07:33:02.860Z,11.50
2017-08-10T07:35:30.160Z,10.77
2017-08-10T07:37:58.002Z,10.90
2017-08-10T07:40:25.271Z,12.97
2017-08-10T07:42:52.555Z,9.80
2017-08-10T07:45:19.846Z,9.87
2017-08-10T07:47:47.143Z,7.90
2017-08-10T07:50:14.393Z,9.47
2017-08-10T07:52:41.654Z,8.77
2017-08-10T07:55:08.939Z,9.90
2017-08-10T07:57:36.221Z,9.00
2017-08-10T08:00:03.513Z,9.80
2017-08-10T08:02:30.772Z,8.43
2017-08-10T08:04:58.027Z,6.17
2017-08-10T08:07:25.319Z,8.07
2017-08-10T08:09:52.580Z,8.53
2017-08-10T08:12:19.871Z,6.83
2017-08-10T08:14:47.160Z,6.37
2017-08-10T08:17:14.449Z,9.00
2017-08-10T08:19:41.706Z,7.57
2017-08-10T08:22:08.977Z,7.57
2017-08-10T08:24:36.259Z,7.07
2017-08-10T08:27:03.525Z,9.90
2017-08-10T08:29:30.812Z,6.57
2017-08-10T08:31:58.071Z,6.53
2017-08-10T08:34:25.358Z,7.43
2017-08-10T08:36:52.623Z,6.90
2017-08-10T08:39:19.912Z,9.40
2017-08-10T08:41:47.179Z,13.47
2017-08-10T08:44:14.502Z,10.23
2017-08-10T08:46:41.799Z,10.50
2017-08-10T08:49:09.071Z,11.27
2017-08-10T08:51:36.375Z,11.30
2017-08-10T08:54:03.648Z,8.17
2017-08-10T08:56:30.945Z,9.87
2017-08-10T08:58:58.205Z,9.77
2017-08-10T09:01:25.461Z,8.53
2017-08-10T09:03:52.765Z,8.87
2017-08-10T09:06:20.029Z,8.60
2017-08-10T09:08:47.311Z,8.33
2017-08-10T09:11:14.606Z,9.20
2017-08-10T09:13:41.875Z,9.67
2017-08-10T09:16:09.132Z,9.13
2017-08-10T09:18:36.425Z,8.43
2017-08-10T09:21:03.690Z,7.80
2017-08-10T09:23:30.961Z,8.43
2017-08-10T09:25:58.285Z,8.37
2017-08-10T09:28:25.745Z,8.27
2017-08-10T09:30:53.023Z,7.50
2017-08-10T09:33:20.291Z,7.13
2017-08-10T09:35:47.586Z,7.50
2017-08-10T09:38:14.866Z,8.13
2017-08-10T09:40:42.226Z,6.90
2017-08-10T09:43:09.483Z,5.50
2017-08-10T09:45:36.772Z,6.70
2017-08-10T09:48:04.055Z,6.50
2017-08-10T09:50:31.319Z,9.30
2017-08-10T09:52:58.623Z,10.53
2017-08-10T09:55:25.887Z,6.53
2017-08-10T09:57:53.166Z,9.30
2017-08-10T10:00:20.450Z,7.20
2017-08-10T10:02:47.711Z,12.10
2017-08-10T10:05:15.036Z,8.73
2017-08-10T10:07:42.323Z,8.03
2017-08-10T10:10:09.579Z,8.00
2017-08-10T10:12:36.866Z,10.10
2017-08-10T10:15:04.162Z,5.80
2017-08-10T10:17:31.444Z,7.20
2017-08-10T10:19:58.748Z,7.07
2017-08-10T10:22:26.007Z,10.20
2017-08-10T10:24:53.322Z,6.60
2017-08-10T10:27:20.610Z,7.83
2017-08-10T10:29:47.908Z,6.97
2017-08-10T10:32:15.198Z,5.73
2017-08-10T10:34:42.496Z,6.37
2017-08-10T10:37:09.782Z,4.60
2017-08-10T10:39:37.048Z,5.27
2017-08-10T10:42:04.345Z,6.00
2017-08-10T10:44:31.615Z,8.33
2017-08-10T10:46:58.906Z,10.30
2017-08-10T10:49:26.255Z,7.27
2017-08-10T10:51:53.595Z,8.40
2017-08-10T10:54:20.942Z,9.40
2017-08-10T10:56:48.196Z,6.23
2017-08-10T10:59:15.539Z,8.70
2017-08-10T11:01:42.838Z,7.50
2017-08-10T11:04:10.114Z,6.07
2017-08-10T11:06:37.423Z,4.67
2017-08-10T11:09:04.687Z,5.13
2017-08-10T11:11:32.011Z,4.63
2017-08-10T11:13:59.284Z,4.97
2017-08-10T11:16:26.594Z,4.73
2017-08-10T11:18:53.855Z,9.23
2017-08-10T11:21:21.163Z,4.17
2017-08-10T11:23:48.492Z,8.07
2017-08-10T11:26:15.761Z,7.30
2017-08-10T11:28:43.055Z,3.70
2017-08-10T11:31:10.326Z,3.13
2017-08-10T11:33:37.620Z,3.20
2017-08-10T11:36:04.921Z,4.50
2017-08-10T11:38:32.266Z,6.80
2017-08-10T11:40:59.603Z,2.30
2017-08-10T11:43:26.893Z,2.37
2017-08-10T11:45:54.188Z,3.97
2017-08-10T11:48:21.477Z,4.37
2017-08-10T11:50:48.776Z,4.93
2017-08-10T11:53:16.136Z,13.50
2017-08-10T11:55:43.408Z,3.00
2017-08-10T11:58:10.687Z,5.40
2017-08-10T12:00:38.026Z,3.93
2017-08-10T12:03:05.359Z,3.20
2017-08-10T12:05:32.646Z,3.70
2017-08-10T12:07:59.933Z,3.20
2017-08-10T12:10:27.256Z,3.37
2017-08-10T12:12:54.605Z,2.87
2017-08-10T12:15:21.973Z,4.47
2017-08-10T12:17:49.292Z,3.77
2017-08-10T12:20:16.620Z,3.10
2017-08-10T12:22:43.917Z,3.07
2017-08-10T12:25:11.188Z,6.37
2017-08-10T12:27:38.509Z,3.20
2017-08-10T12:30:05.783Z,4.10
2017-08-10T12:32:33.860Z,3.90
2017-08-10T12:35:02.068Z,4.80
2017-08-10T12:37:29.626Z,3.93
2017-08-10T12:39:56.935Z,3.47
2017-08-10T12:42:24.210Z,3.57
2017-08-10T12:44:52.384Z,5.13
2017-08-10T12:47:19.889Z,3.50
2017-08-10T12:49:47.183Z,4.17
2017-08-10T12:52:14.539Z,3.43
2017-08-10T12:54:41.832Z,4.47
2017-08-10T12:57:09.107Z,4.30
2017-08-10T12:59:36.447Z,5.63
2017-08-10T13:02:03.720Z,4.53
2017-08-10T13:04:31.030Z,5.27
2017-08-10T13:06:58.305Z,3.57
2017-08-10T13:09:25.600Z,4.70
2017-08-10T13:11:52.925Z,4.40
2017-08-10T13:14:20.194Z,4.63
2017-08-10T13:16:47.465Z,4.27
2017-08-10T13:19:14.788Z,5.20
2017-08-10T13:21:42.104Z,6.00
2017-08-10T13:24:09.391Z,5.97
2017-08-10T13:26:36.693Z,10.50
2017-08-10T13:29:04.022Z,6.37
2017-08-10T13:31:31.541Z,7.53
2017-08-10T13:33:59.328Z,9.83
2017-08-10T13:36:26.615Z,6.43
2017-08-10T13:38:53.903Z,8.73
2017-08-10T13:41:21.171Z,8.60
2017-08-10T13:43:48.484Z,6.67
2017-08-10T13:46:15.783Z,8.60
2017-08-10T13:48:43.040Z,6.53
2017-08-10T13:51:10.302Z,5.77
2017-08-10T13:53:37.610Z,8.70
2017-08-10T13:56:04.882Z,7.10
2017-08-10T13:58:32.156Z,8.47
2017-08-10T14:00:59.438Z,8.90
2017-08-10T14:03:26.694Z,8.23
2017-08-10T14:05:53.999Z,7.57
2017-08-10T14:08:21.255Z,7.70
2017-08-10T14:10:48.528Z,9.47
2017-08-10T14:13:15.867Z,10.63
2017-08-10T14:15:43.126Z,7.20
2017-08-10T14:18:10.403Z,8.20
2017-08-10T14:20:37.715Z,8.83
2017-08-10T14:23:04.977Z,8.80
2017-08-10T14:25:32.234Z,7.67
2017-08-10T14:27:59.556Z,7.87
2017-08-10T14:30:26.816Z,6.20
2017-08-10T14:32:54.115Z,11.93
2017-08-10T14:35:21.444Z,8.00
2017-08-10T14:37:48.727Z,10.20
2017-08-10T14:40:16.039Z,7.50
2017-08-10T14:42:43.312Z,6.63
2017-08-10T14:45:10.616Z,7.80
2017-08-10T14:47:37.897Z,7.50
2017-08-10T14:50:05.203Z,6.70
2017-08-10T14:52:32.494Z,6.87
2017-08-10T14:54:59.752Z,6.80
2017-08-10T14:57:27.062Z,9.07
2017-08-10T14:59:54.329Z,6.20
2017-08-10T15:02:21.640Z,8.73
2017-08-10T15:04:48.908Z,8.43
2017-08-10T15:07:16.196Z,11.10
2017-08-10T15:09:43.483Z,7.13
2017-08-10T15:12:10.768Z,8.20
2017-08-10T15:14:38.062Z,8.43
2017-08-10T15:17:05.323Z,7.80
2017-08-10T15:19:32.633Z,6.13
2017-08-10T15:21:59.938Z,7.73
2017-08-10T15:24:27.186Z,6.40
2017-08-10T15:26:54.483Z,6.03
2017-08-10T15:29:21.750Z,10.90
2017-08-10T15:31:49.071Z,8.03
2017-08-10T15:34:16.354Z,7.77
2017-08-10T15:36:43.613Z,5.70
2017-08-10T15:39:10.919Z,7.30
2017-08-10T15:41:38.177Z,6.50
2017-08-10T15:44:05.463Z,7.57
2017-08-10T15:46:32.727Z,7.40
2017-08-10T15:49:00.011Z,8.37
2017-08-10T15:51:27.295Z,5.80
2017-08-10T15:53:54.552Z,6.47
2017-08-10T15:56:21.846Z,7.27
2017-08-10T15:58:49.099Z,9.27
2017-08-10T16:01:16.396Z,6.83
2017-08-10T16:03:43.685Z,8.00
2017-08-10T16:06:10.957Z,6.97
2017-08-10T16:08:38.252Z,10.40
2017-08-10T16:11:05.512Z,9.17
2017-08-10T16:13:32.800Z,6.53
2017-08-10T16:16:00.072Z,8.37
2017-08-10T16:18:27.360Z,6.77
2017-08-10T16:20:54.649Z,6.97
2017-08-10T16:23:21.979Z,7.30
2017-08-10T16:25:49.245Z,10.67
2017-08-10T16:28:16.527Z,7.63
2017-08-10T16:30:43.793Z,7.13
2017-08-10T16:33:11.094Z,7.47
2017-08-10T16:35:38.392Z,7.17
2017-08-10T16:38:05.679Z,7.77
2017-08-10T16:40:32.939Z,5.90
2017-08-10T16:43:00.223Z,6.20
2017-08-10T16:45:27.480Z,6.93
2017-08-10T16:47:54.792Z,6.60
2017-08-10T16:50:22.057Z,5.80
2017-08-10T16:52:49.302Z,6.17
2017-08-10T16:55:16.593Z,7.53
2017-08-10T16:57:43.864Z,6.87
2017-08-10T17:00:11.159Z,5.73
2017-08-10T17:02:38.462Z,5.63
2017-08-10T17:05:05.726Z,6.30
2017-08-10T17:07:33.007Z,7.77
2017-08-10T17:10:00.304Z,5.13
2017-08-10T17:12:27.575Z,6.93
2017-08-10T17:14:54.936Z,7.00
2017-08-10T17:17:22.219Z,8.93
2017-08-10T17:19:49.489Z,6.07
2017-08-10T17:22:16.819Z,8.00
2017-08-10T17:24:44.098Z,5.53
2017-08-10T17:27:11.360Z,4.93
2017-08-10T17:29:38.670Z,5.17
2017-08-10T17:32:05.934Z,5.90
2017-08-10T17:34:33.195Z,7.50
2017-08-10T17:37:00.491Z,5.70
2017-08-10T17:39:27.743Z,6.17
2017-08-10T17:41:55.048Z,6.57
2017-08-10T17:44:22.303Z,6.37
2017-08-10T17:46:49.569Z,7.10
2017-08-10T17:49:16.855Z,7.00
2017-08-10T17:51:44.111Z,7.90
2017-08-10T17:54:11.400Z,9.73
2017-08-10T17:56:38.663Z,8.10
2017-08-10T17:59:05.959Z,9.33
2017-08-10T18:01:33.228Z,6.53
2017-08-10T18:04:00.487Z,8.90
2017-08-10T18:06:27.775Z,7.33
2017-08-10T18:08:55.032Z,6.77
2017-08-10T18:11:22.331Z,8.20
2017-08-10T18:13:49.583Z,7.20
2017-08-10T18:16:16.848Z,8.30
2017-08-10T18:18:44.126Z,7.03
2017-08-10T18:21:11.386Z,8.07
2017-08-10T18:23:38.682Z,7.93
2017-08-10T18:26:05.943Z,6.50
2017-08-10T18:28:33.200Z,8.77
2017-08-10T18:31:00.490Z,8.17
2017-08-10T18:33:27.752Z,8.53
2017-08-10T18:35:55.057Z,9.73
2017-08-10T18:38:22.343Z,8.90
2017-08-10T18:40:49.611Z,8.67
2017-08-10T18:43:16.958Z,6.93
2017-08-10T18:45:44.226Z,8.17
2017-08-10T18:48:11.539Z,8.07
2017-08-10T18:50:38.838Z,7.97
2017-08-10T18:53:06.096Z,7.60
2017-08-10T18:55:33.402Z,9.17
2017-08-10T18:58:00.699Z,7.00
2017-08-10T19:00:27.971Z,9.53
2017-08-10T19:02:55.274Z,8.00
2017-08-10T19:05:22.561Z,8.70
2017-08-10T19:07:49.848Z,10.20
2017-08-10T19:10:17.155Z,9.50
2017-08-10T19:12:44.459Z,13.80
2017-08-10T19:15:11.715Z,9.20
2017-08-10T19:17:39.025Z,15.97
2017-08-10T19:20:06.856Z,13.87
2017-08-10T19:22:34.154Z,12.73
2017-08-10T19:25:01.452Z,11.73
2017-08-10T19:27:28.725Z,10.27
2017-08-10T19:29:56.032Z,10.47
2017-08-10T19:32:23.310Z,9.60
2017-08-10T19:34:50.661Z,10.80
2017-08-10T19:37:17.977Z,11.90
2017-08-10T19:39:45.530Z,13.30
2017-08-10T19:42:13.793Z,10.30
2017-08-10T19:44:41.273Z,16.30
2017-08-10T19:47:11.498Z,9.90
2017-08-10T19:49:39.066Z,9.20
2017-08-10T19:52:06.636Z,9.07
2017-08-10T19:54:34.266Z,9.70
2017-08-10T19:57:01.580Z,10.90
2017-08-10T19:59:28.852Z,9.23
2017-08-10T20:01:56.187Z,10.03
2017-08-10T20:04:23.495Z,11.90
2017-08-10T20:06:50.796Z,12.90
2017-08-10T20:09:18.130Z,14.10
2017-08-10T20:11:45.407Z,13.50
2017-08-10T20:14:12.740Z,12.07
2017-08-10T20:16:40.227Z,16.60
2017-08-10T20:19:08.639Z,13.30
2017-08-10T20:21:36.261Z,11.83
2017-08-10T20:24:03.974Z,12.00
2017-08-10T20:26:31.611Z,11.20
2017-08-10T20:28:59.130Z,12.93
2017-08-10T20:31:27.019Z,13.07
2017-08-10T20:33:54.338Z,11.77
2017-08-10T20:36:21.635Z,13.07
2017-08-10T20:38:48.904Z,10.00
2017-08-10T20:41:16.206Z,9.70
2017-08-10T20:43:43.470Z,10.67
2017-08-10T20:46:10.741Z,11.43
2017-08-10T20:48:38.039Z,11.20
2017-08-10T20:51:05.314Z,13.10
2017-08-10T20:53:32.607Z,15.70
2017-08-10T20:55:59.870Z,10.43
2017-08-10T20:58:27.223Z,11.93
2017-08-10T21:00:54.515Z,13.83
2017-08-10T21:03:21.778Z,9.90
2017-08-10T21:05:49.115Z,13.83
2017-08-10T21:08:16.396Z,13.50
2017-08-10T21:10:43.664Z,14.13
2017-08-10T21:13:10.975Z,17.63
2017-08-10T21:15:38.279Z,12.77
2017-08-10T21:18:05.547Z,18.90
2017-08-10T21:20:32.870Z,15.97
2017-08-10T21:23:00.140Z,22.40
2017-08-10T21:25:27.410Z,15.27
2017-08-10T21:27:54.710Z,11.90
2017-08-10T21:30:21.986Z,15.17
2017-08-10T21:32:49.324Z,12.13
2017-08-10T21:35:16.633Z,14.73
2017-08-10T21:37:44.105Z,12.40
2017-08-10T21:40:11.404Z,16.70
2017-08-10T21:42:38.695Z,17.73
2017-08-10T21:45:06.052Z,14.70
2017-08-10T21:47:33.354Z,14.20
2017-08-10T21:50:00.638Z,16.90
2017-08-10T21:52:28.039Z,15.33
2017-08-10T21:54:55.331Z,15.40
2017-08-10T21:57:22.652Z,16.47
2017-08-10T21:59:49.982Z,18.70
2017-08-10T22:02:17.295Z,19.33
2017-08-10T22:04:44.629Z,16.67
2017-08-10T22:07:11.910Z,16.83
2017-08-10T22:09:39.242Z,19.00
2017-08-10T22:12:06.555Z,15.40
2017-08-10T22:14:33.915Z,17.17
2017-08-10T22:17:01.236Z,18.90
2017-08-10T22:19:28.546Z,17.73
2017-08-10T22:21:55.829Z,16.33
2017-08-10T22:24:23.171Z,16.43
2017-08-10T22:26:50.458Z,16.20
2017-08-10T22:29:17.770Z,17.23
2017-08-10T22:31:45.119Z,19.00
2017-08-10T22:34:12.417Z,15.97
2017-08-10T22:36:39.697Z,18.10
2017-08-10T22:39:06.999Z,17.10
2017-08-10T22:41:34.273Z,20.67
2017-08-10T22:44:01.625Z,19.70
2017-08-10T22:46:28.946Z,20.67
2017-08-10T22:48:56.261Z,19.30
2017-08-10T22:51:23.564Z,21.37
2017-08-10T22:53:50.897Z,23.40
2017-08-10T22:56:18.241Z,21.43
2017-08-10T22:58:45.530Z,22.00
2017-08-10T23:01:12.847Z,20.53
2017-08-10T23:03:40.162Z,20.27
2017-08-10T23:06:07.476Z,24.50
2017-08-10T23:08:34.969Z,28.10
2017-08-10T23:11:02.333Z,25.83
2017-08-10T23:13:29.667Z,26.30
2017-08-10T23:15:57.001Z,32.97
2017-08-10T23:18:24.295Z,25.80
2017-08-10T23:20:51.641Z,25.47
2017-08-10T23:23:18.945Z,27.77
2017-08-10T23:25:46.264Z,23.17
2017-08-10T23:28:13.556Z,25.13
2017-08-10T23:30:40.867Z,21.83
2017-08-10T23:33:08.195Z,31.17
2017-08-10T23:35:35.491Z,28.27
2017-08-10T23:38:02.839Z,28.37
2017-08-10T23:40:30.699Z,25.83
2017-08-10T23:42:58.038Z,32.10
2017-08-10T23:45:25.348Z,35.07
2017-08-10T23:47:52.673Z,36.40
2017-08-10T23:50:20.005Z,33.00
2017-08-10T23:52:47.377Z,25.33
2017-08-10T23:55:14.670Z,26.83
2017-08-10T23:57:41.989Z,30.70
